createdAt,value
2023-05-09T00:00:44.591Z,100057.72
2023-05-09T00:03:12.705Z,100059.25
2023-05-09T00:05:39.303Z,100052.94
2023-05-09T00:08:05.882Z,100053.91
2023-05-09T00:10:32.417Z,100044.22
2023-05-09T00:12:59.682Z,100043.38
2023-05-09T00:15:26.617Z,100036.34
2023-05-09T00:17:53.008Z,100032.69
2023-05-09T00:20:20.019Z,100038.03
2023-05-09T00:22:46.364Z,100036.47
2023-05-09T00:25:12.983Z,100033.81
2023-05-09T00:27:39.627Z,100023.13
2023-05-09T00:30:06.655Z,100013.44
2023-05-09T00:32:34.197Z,100019.78
2023-05-09T00:35:00.667Z,100012.72
2023-05-09T00:37:30.460Z,99997.84
2023-05-09T00:39:56.791Z,100004.03
2023-05-09T00:42:23.108Z,100006.97
2023-05-09T00:44:49.456Z,99996.44
2023-05-09T00:47:15.809Z,99993.06
2023-05-09T00:49:42.688Z,99989.69
2023-05-09T00:52:09.451Z,99992.50
2023-05-09T00:54:35.844Z,99996.28
2023-05-09T00:57:02.196Z,99990.25
2023-05-09T00:59:28.565Z,99986.88
2023-05-09T01:01:54.957Z,99978.16
2023-05-09T01:04:21.535Z,99980.97
2023-05-09T01:07:15.063Z,99969.19
2023-05-09T01:09:47.595Z,99974.22
2023-05-09T01:12:31.072Z,99970.13
2023-05-09T01:15:01.158Z,99957.78
2023-05-09T01:17:58.591Z,99963.91
2023-05-09T01:21:00.441Z,99957.44
2023-05-09T01:23:45.185Z,99951.28
2023-05-09T01:26:17.530Z,99958.69
2023-05-09T01:29:01.511Z,99948.31
2023-05-09T01:31:28.713Z,99939.59
2023-05-09T01:33:59.687Z,99948.84
2023-05-09T01:36:29.938Z,99946.31
2023-05-09T01:38:58.360Z,99938.59
2023-05-09T01:41:26.751Z,99940.53
2023-05-09T01:43:55.997Z,99944.47
2023-05-09T01:46:25.431Z,99938.44
2023-05-09T01:48:52.716Z,99942.22
2023-05-09T01:51:20.493Z,99946.94
2023-05-09T01:53:48.411Z,99944.72
2023-05-09T01:56:16.081Z,99934.19
2023-05-09T01:58:43.773Z,99935.28
2023-05-09T02:01:10.624Z,99930.09
2023-05-09T02:03:38.594Z,99925.88
2023-05-09T02:06:05.598Z,99911.97
2023-05-09T02:08:33.296Z,99923.59
2023-05-09T02:10:59.684Z,99922.06
2023-05-09T02:13:26.119Z,99922.06
2023-05-09T02:15:53.744Z,99922.06
2023-05-09T02:18:20.075Z,99914.06
2023-05-09T02:20:47.312Z,99915.75
2023-05-09T02:23:13.891Z,99918.41
2023-05-09T02:25:40.968Z,99918.28
2023-05-09T02:28:10.160Z,99919.25
2023-05-09T02:30:41.878Z,99920.13
2023-05-09T02:33:11.645Z,99915.47
2023-05-09T02:35:42.213Z,99917.16
2023-05-09T02:38:08.786Z,99909.03
2023-05-09T02:40:36.206Z,99901.03
2023-05-09T02:43:02.761Z,99907.91
2023-05-09T02:45:29.127Z,99901.03
2023-05-09T02:47:55.610Z,99902.59
2023-05-09T02:50:21.975Z,99902.72
2023-05-09T02:52:48.413Z,99900.19
2023-05-09T02:55:15.240Z,99897.38
2023-05-09T02:57:41.850Z,99893.16
2023-05-09T03:00:09.596Z,99890.63
2023-05-09T03:02:37.011Z,99896.13
2023-05-09T03:05:03.768Z,99896.38
2023-05-09T03:07:30.744Z,99893.84
2023-05-09T03:09:57.209Z,99895.78
2023-05-09T03:12:23.834Z,99893.28
2023-05-09T03:14:50.186Z,99896.91
2023-05-09T03:17:21.001Z,99891.88
2023-05-09T03:19:48.389Z,99883.16
2023-05-09T03:22:15.170Z,99884.28
2023-05-09T03:24:41.529Z,99872.06
2023-05-09T03:27:07.849Z,99872.31
2023-05-09T03:29:34.157Z,99879.63
2023-05-09T03:32:00.735Z,99874.56
2023-05-09T03:34:27.046Z,99875.63
2023-05-09T03:36:53.367Z,99876.75
2023-05-09T03:39:19.676Z,99881.22
2023-05-09T03:41:46.021Z,99868.88
2023-05-09T03:44:12.435Z,99864.41
2023-05-09T03:46:38.834Z,99866.22
2023-05-09T03:49:05.232Z,99866.34
2023-05-09T03:51:32.367Z,99861.16
2023-05-09T03:53:58.798Z,99858.50
2023-05-09T03:56:25.762Z,99863.00
2023-05-09T03:58:52.118Z,99855.94
2023-05-09T04:01:18.485Z,99854.00
2023-05-09T04:03:44.977Z,99853.16
2023-05-09T04:06:12.562Z,99854.16
2023-05-09T04:08:39.007Z,99856.81
2023-05-09T04:11:05.985Z,99856.81
2023-05-09T04:13:33.730Z,99857.78
2023-05-09T04:16:00.056Z,99855.94
2023-05-09T04:18:26.365Z,99856.69
2023-05-09T04:20:53.378Z,99851.34
2023-05-09T04:23:19.751Z,99851.22
2023-05-09T04:25:46.406Z,99852.03
2023-05-09T04:28:12.735Z,99842.25
2023-05-09T04:30:39.072Z,99840.44
2023-05-09T04:33:05.488Z,99844.78
2023-05-09T04:35:31.884Z,99835.81
2023-05-09T04:37:58.163Z,99839.31
2023-05-09T04:40:26.244Z,99842.81
2023-05-09T04:42:53.534Z,99839.19
2023-05-09T04:45:20.039Z,99843.56
2023-05-09T04:47:46.377Z,99829.41
2023-05-09T04:50:12.949Z,99835.59
2023-05-09T04:52:39.272Z,99834.47
2023-05-09T04:55:06.151Z,99835.31
2023-05-09T04:57:32.438Z,99834.34
2023-05-09T04:59:58.749Z,99829.69
2023-05-09T05:02:25.262Z,99830.56
2023-05-09T05:04:52.873Z,99824.09
2023-05-09T05:07:21.135Z,99827.47
2023-05-09T05:09:47.436Z,99825.53
2023-05-09T05:12:13.835Z,99815.56
2023-05-09T05:14:40.188Z,99810.81
2023-05-09T05:17:06.621Z,99809.69
2023-05-09T05:19:33.006Z,99809.44
2023-05-09T05:21:59.434Z,99805.66
2023-05-09T05:24:25.785Z,99803.53
2023-05-09T05:26:52.077Z,99796.25
2023-05-09T05:29:18.425Z,99802.03
2023-05-09T05:31:44.830Z,99798.94
2023-05-09T05:34:11.274Z,99806.53
2023-05-09T05:36:37.660Z,99807.94
2023-05-09T05:39:04.331Z,99806.53
2023-05-09T05:41:31.001Z,99799.78
2023-05-09T05:43:57.342Z,99800.22
2023-05-09T05:46:23.773Z,99789.97
2023-05-09T05:48:50.126Z,99799.25
2023-05-09T05:51:16.481Z,99792.66
2023-05-09T05:53:43.180Z,99795.72
2023-05-09T05:56:09.584Z,99784.63
2023-05-09T05:58:35.960Z,99787.44
2023-05-09T06:01:02.402Z,99789.72
2023-05-09T06:03:28.798Z,99790.78
2023-05-09T06:05:55.861Z,99785.19
2023-05-09T06:08:22.206Z,99785.59
2023-05-09T06:10:48.580Z,99782.63
2023-05-09T06:13:15.122Z,99782.34
2023-05-09T06:15:41.853Z,99782.09
2023-05-09T06:18:09.079Z,99778.97
2023-05-09T06:20:36.142Z,99769.69
2023-05-09T06:23:02.633Z,99765.72
2023-05-09T06:25:29.109Z,99762.63
2023-05-09T06:27:55.628Z,99772.03
2023-05-09T06:30:26.282Z,99768.06
2023-05-09T06:32:54.952Z,99755.94
2023-05-09T06:35:21.841Z,99751.19
2023-05-09T06:37:49.118Z,99754.09
2023-05-09T06:40:16.382Z,99754.50
2023-05-09T06:42:43.068Z,99745.19
2023-05-09T06:45:19.149Z,99752.06
2023-05-09T06:47:46.031Z,99738.69
2023-05-09T06:50:12.605Z,99742.41
2023-05-09T06:52:39.139Z,99739.31
2023-05-09T06:55:06.317Z,99737.03
2023-05-09T06:57:33.006Z,99732.19
2023-05-09T06:59:59.516Z,99731.75
2023-05-09T07:02:26.115Z,99727.94
2023-05-09T07:04:54.323Z,99732.13
2023-05-09T07:07:20.975Z,99720.28
2023-05-09T07:09:49.235Z,99726.34
2023-05-09T07:12:17.407Z,99713.81
2023-05-09T07:14:43.854Z,99715.50
2023-05-09T07:17:22.026Z,99702.28
2023-05-09T07:19:49.901Z,99705.97
2023-05-09T07:22:16.532Z,99706.94
2023-05-09T07:24:44.576Z,99703.44
2023-05-09T07:27:11.050Z,99702.59
2023-05-09T07:29:37.553Z,99697.25
2023-05-09T07:32:04.280Z,99696.25
2023-05-09T07:34:30.810Z,99694.28
2023-05-09T07:36:58.712Z,99694.94
2023-05-09T07:39:25.354Z,99693.50
2023-05-09T07:41:51.903Z,99693.72
2023-05-09T07:44:18.403Z,99683.09
2023-05-09T07:46:44.812Z,99684.00
2023-05-09T07:49:11.322Z,99679.38
2023-05-09T07:51:37.759Z,99676.66
2023-05-09T07:54:04.296Z,99671.34
2023-05-09T07:56:30.803Z,99667.03
2023-05-09T07:58:57.315Z,99673.44
2023-05-09T08:01:24.001Z,99673.78
2023-05-09T08:03:50.785Z,99663.44
2023-05-09T08:06:17.499Z,99667.47
2023-05-09T08:08:44.014Z,99659.13
2023-05-09T08:11:10.676Z,99650.78
2023-05-09T08:13:37.259Z,99652.47
2023-05-09T08:16:04.091Z,99641.59
2023-05-09T08:18:30.716Z,99654.81
2023-05-09T08:20:59.603Z,99657.50
2023-05-09T08:23:26.664Z,99643.25
2023-05-09T08:25:54.527Z,99645.09
2023-05-09T08:28:24.167Z,99652.47
2023-05-09T08:30:51.722Z,99653.78
2023-05-09T08:33:18.341Z,99642.56
2023-05-09T08:35:44.928Z,99634.16
2023-05-09T08:38:11.508Z,99640.00
2023-05-09T08:40:38.076Z,99639.31
2023-05-09T08:43:07.931Z,99633.75
2023-05-09T08:46:06.872Z,99630.06
2023-05-09T08:48:37.577Z,99632.41
2023-05-09T08:51:07.756Z,99624.84
2023-05-09T08:53:34.517Z,99625.88
2023-05-09T08:56:02.819Z,99620.81
2023-05-09T08:58:30.531Z,99615.78
2023-05-09T09:00:58.011Z,99621.28
2023-05-09T09:03:26.265Z,99615.13
2023-05-09T09:05:54.885Z,99620.47
2023-05-09T09:08:23.548Z,99607.09
2023-05-09T09:10:50.143Z,99609.28
2023-05-09T09:13:18.061Z,99607.28
2023-05-09T09:15:46.852Z,99609.63
2023-05-09T09:18:21.018Z,99605.81
2023-05-09T09:20:56.463Z,99609.16
2023-05-09T09:23:25.385Z,99605.16
2023-05-09T09:26:18.140Z,99599.97
2023-05-09T09:28:44.670Z,99592.81
2023-05-09T09:31:25.496Z,99587.47
2023-05-09T09:33:52.188Z,99581.31
2023-05-09T09:36:28.530Z,99579.97
2023-05-09T09:39:04.801Z,99577.69
2023-05-09T09:41:36.182Z,99571.34
2023-05-09T09:44:10.412Z,99559.84
2023-05-09T09:46:52.930Z,99568.41
2023-05-09T09:49:25.839Z,99559.88
2023-05-09T09:51:53.314Z,99558.88
2023-05-09T09:54:20.097Z,99551.78
2023-05-09T09:56:53.206Z,99545.06
2023-05-09T09:59:21.736Z,99558.13
2023-05-09T10:02:06.100Z,99545.72
2023-05-09T10:04:36.103Z,99543.34
2023-05-09T10:07:05.863Z,99537.28
2023-05-09T10:09:35.825Z,99542.84
2023-05-09T10:12:04.788Z,99535.63
2023-05-09T10:14:35.103Z,99528.06
2023-05-09T10:17:03.836Z,99527.56
2023-05-09T10:19:31.901Z,99522.66
2023-05-09T10:22:05.228Z,99519.81
2023-05-09T10:24:40.243Z,99514.09
2023-05-09T10:27:11.078Z,99511.06
2023-05-09T10:29:54.677Z,99509.53
2023-05-09T10:32:31.594Z,99507.06
2023-05-09T10:35:04.531Z,99510.91
2023-05-09T10:37:31.667Z,99502.91
2023-05-09T10:40:02.900Z,99502.25
2023-05-09T10:42:30.612Z,99492.72
2023-05-09T10:44:57.988Z,99487.38
2023-05-09T10:47:28.933Z,99491.78
2023-05-09T10:49:56.123Z,99486.59
2023-05-09T10:52:22.889Z,99481.41
2023-05-09T10:55:01.812Z,99477.06
2023-05-09T10:57:30.043Z,99469.78
2023-05-09T10:59:57.629Z,99462.56
2023-05-09T11:02:31.104Z,99462.16
2023-05-09T11:05:14.645Z,99459.91
2023-05-09T11:07:41.472Z,99452.25
2023-05-09T11:10:17.683Z,99457.88
2023-05-09T11:12:57.686Z,99455.63
2023-05-09T11:15:26.477Z,99452.16
2023-05-09T11:18:10.491Z,99449.75
2023-05-09T11:20:43.509Z,99444.13
2023-05-09T11:23:12.886Z,99440.19
2023-05-09T11:25:39.785Z,99442.16
2023-05-09T11:28:06.391Z,99436.38
2023-05-09T11:30:40.346Z,99438.25
2023-05-09T11:33:21.055Z,99431.84
2023-05-09T11:35:47.555Z,99435.94
2023-05-09T11:38:21.438Z,99420.91
2023-05-09T11:40:48.450Z,99424.63
2023-05-09T11:43:15.488Z,99405.41
2023-05-09T11:45:42.206Z,99399.78
2023-05-09T11:48:09.426Z,99397.59
2023-05-09T11:50:35.974Z,99396.28
2023-05-09T11:53:02.486Z,99387.16
2023-05-09T11:55:30.567Z,99382.41
2023-05-09T11:57:57.227Z,99388.81
2023-05-09T12:00:25.152Z,99379.41
2023-05-09T12:02:53.124Z,99368.06
2023-05-09T12:05:21.638Z,99373.16
2023-05-09T12:07:48.769Z,99370.75
2023-05-09T12:10:17.137Z,99363.25
2023-05-09T12:12:58.097Z,99360.56
2023-05-09T12:15:24.749Z,99356.34
2023-05-09T12:18:02.925Z,99347.19
2023-05-09T12:20:40.561Z,99345.53
2023-05-09T12:23:07.072Z,99344.69
2023-05-09T12:25:33.490Z,99347.88
2023-05-09T12:27:59.953Z,99342.47
2023-05-09T12:30:26.359Z,99339.75
2023-05-09T12:32:52.878Z,99329.78
2023-05-09T12:35:22.662Z,99330.22
2023-05-09T12:37:57.729Z,99333.56
2023-05-09T12:40:24.491Z,99323.16
2023-05-09T12:42:53.646Z,99318.56
2023-05-09T12:45:20.251Z,99322.50
2023-05-09T12:47:51.914Z,99324.81
2023-05-09T12:50:19.080Z,99324.16
2023-05-09T12:53:01.942Z,99317.28
2023-05-09T12:55:30.302Z,99317.06
2023-05-09T12:58:02.604Z,99316.47
2023-05-09T13:00:29.605Z,99315.44
2023-05-09T13:02:56.213Z,99306.50
2023-05-09T13:05:23.376Z,99305.06
2023-05-09T13:07:56.865Z,99301.94
2023-05-09T13:10:25.075Z,99297.16
2023-05-09T13:12:52.701Z,99287.00
2023-05-09T13:15:21.544Z,99290.47
2023-05-09T13:17:49.479Z,99289.22
2023-05-09T13:20:17.142Z,99289.19
2023-05-09T13:22:44.894Z,99285.44
2023-05-09T13:25:12.025Z,99288.06
2023-05-09T13:27:38.593Z,99292.75
2023-05-09T13:30:07.591Z,99287.47
2023-05-09T13:32:34.690Z,99290.44
2023-05-09T13:35:01.071Z,99283.22
2023-05-09T13:37:28.070Z,99292.56
2023-05-09T13:39:55.580Z,99296.88
2023-05-09T13:42:21.960Z,99276.94
2023-05-09T13:44:48.313Z,99272.75
2023-05-09T13:47:14.638Z,99271.97
2023-05-09T13:49:40.966Z,99266.22
2023-05-09T13:52:08.169Z,99259.72
2023-05-09T13:54:35.098Z,99249.59
2023-05-09T13:57:04.982Z,99245.91
2023-05-09T13:59:32.218Z,99248.53
2023-05-09T14:01:59.985Z,99229.97
2023-05-09T14:04:31.770Z,99234.56
2023-05-09T14:06:59.767Z,99232.66
2023-05-09T14:09:26.923Z,99229.13
2023-05-09T14:11:53.913Z,99224.41
2023-05-09T14:14:21.927Z,99225.78
2023-05-09T14:16:48.450Z,99226.09
2023-05-09T14:19:15.759Z,99207.28
2023-05-09T14:21:43.020Z,99211.44
2023-05-09T14:24:10.250Z,99211.44
2023-05-09T14:26:36.608Z,99207.06
2023-05-09T14:29:04.155Z,99204.78
2023-05-09T14:31:30.656Z,99204.16
2023-05-09T14:33:57.349Z,99209.28
2023-05-09T14:36:23.964Z,99211.31
2023-05-09T14:38:50.283Z,99207.09
2023-05-09T14:41:16.610Z,99206.78
2023-05-09T14:43:42.959Z,99204.97
2023-05-09T14:46:09.296Z,99206.94
2023-05-09T14:48:35.699Z,99206.53
2023-05-09T14:51:02.124Z,99196.41
2023-05-09T14:53:28.973Z,99194.94
2023-05-09T14:55:55.960Z,99198.03
2023-05-09T14:58:22.999Z,99202.78
2023-05-09T15:00:49.512Z,99203.78
2023-05-09T15:03:15.858Z,99213.69
2023-05-09T15:05:42.237Z,99208.31
2023-05-09T15:08:08.606Z,99198.75
2023-05-09T15:10:35.051Z,99188.34
2023-05-09T15:13:05.479Z,99183.78
2023-05-09T15:15:32.171Z,99185.00
2023-05-09T15:17:58.753Z,99176.00
2023-05-09T15:20:25.074Z,99166.47
2023-05-09T15:22:51.509Z,99164.66
2023-05-09T15:25:17.894Z,99173.31
2023-05-09T15:27:44.446Z,99169.63
2023-05-09T15:30:11.689Z,99171.31
2023-05-09T15:32:40.654Z,99155.22
2023-05-09T15:35:08.201Z,99153.53
2023-05-09T15:37:35.850Z,99138.00
2023-05-09T15:40:02.729Z,99131.34
2023-05-09T15:42:29.072Z,99126.50
2023-05-09T15:44:55.382Z,99123.53
2023-05-09T15:47:21.983Z,99129.63
2023-05-09T15:49:48.315Z,99131.16
2023-05-09T15:52:14.763Z,99130.69
2023-05-09T15:54:41.234Z,99127.34
2023-05-09T15:57:08.067Z,99131.88
2023-05-09T15:59:34.370Z,99131.88
2023-05-09T16:02:00.754Z,99134.53
2023-05-09T16:04:27.347Z,99135.38
2023-05-09T16:06:55.286Z,99140.56
2023-05-09T16:09:21.662Z,99137.72
2023-05-09T16:11:48.175Z,99137.53
2023-05-09T16:14:14.720Z,99141.88
2023-05-09T16:16:42.634Z,99130.50
2023-05-09T16:19:09.738Z,99133.56
2023-05-09T16:21:37.703Z,99142.13
2023-05-09T16:24:04.910Z,99148.03
2023-05-09T16:26:31.474Z,99154.91
2023-05-09T16:29:01.001Z,99150.63
2023-05-09T16:31:28.045Z,99143.63
2023-05-09T16:33:54.587Z,99149.34
2023-05-09T16:36:22.143Z,99141.34
2023-05-09T16:38:48.811Z,99137.69
2023-05-09T16:41:15.903Z,99128.88
2023-05-09T16:43:42.715Z,99123.22
2023-05-09T16:46:09.326Z,99126.41
2023-05-09T16:48:35.960Z,99124.44
2023-05-09T16:51:02.385Z,99120.44
2023-05-09T16:53:29.106Z,99121.97
2023-05-09T16:55:55.551Z,99121.44
2023-05-09T16:58:22.010Z,99116.63
2023-05-09T17:00:50.429Z,99119.81
2023-05-09T17:03:16.982Z,99119.81
2023-05-09T17:05:43.356Z,99127.34
2023-05-09T17:08:09.804Z,99125.53
2023-05-09T17:10:37.805Z,99138.06
2023-05-09T17:13:08.424Z,99139.22
2023-05-09T17:15:34.919Z,99138.56
2023-05-09T17:18:01.827Z,99137.72
2023-05-09T17:20:28.879Z,99138.06
2023-05-09T17:22:56.268Z,99129.41
2023-05-09T17:25:23.336Z,99133.91
2023-05-09T17:27:49.788Z,99118.84
2023-05-09T17:30:16.599Z,99123.50
2023-05-09T17:32:43.333Z,99121.00
2023-05-09T17:35:09.983Z,99117.50
2023-05-09T17:37:36.399Z,99121.19
2023-05-09T17:40:04.994Z,99116.16
2023-05-09T17:42:31.536Z,99115.47
2023-05-09T17:44:57.945Z,99115.84
2023-05-09T17:47:24.347Z,99107.16
2023-05-09T17:49:50.761Z,99105.66
2023-05-09T17:52:17.239Z,99112.16
2023-05-09T17:54:43.805Z,99104.31
2023-05-09T17:57:10.357Z,99108.16
2023-05-09T17:59:40.314Z,99106.50
2023-05-09T18:02:07.943Z,99098.97
2023-05-09T18:04:34.635Z,99088.44
2023-05-09T18:07:01.194Z,99097.47
2023-05-09T18:09:28.029Z,99097.63
2023-05-09T18:11:54.468Z,99105.81
2023-05-09T18:14:27.195Z,99116.19
2023-05-09T18:16:53.748Z,99129.06
2023-05-09T18:19:20.275Z,99122.56
2023-05-09T18:21:47.126Z,99113.03
2023-05-09T18:24:16.244Z,99107.34
2023-05-09T18:26:43.452Z,99093.47
2023-05-09T18:29:10.013Z,99099.09
2023-05-09T18:31:38.773Z,99102.75
2023-05-09T18:34:05.904Z,99096.38
2023-05-09T18:36:32.625Z,99096.22
2023-05-09T18:38:59.510Z,99099.38
2023-05-09T18:41:26.635Z,99113.38
2023-05-09T18:43:53.240Z,99122.69
2023-05-09T18:46:22.337Z,99113.34
2023-05-09T18:48:51.790Z,99111.16
2023-05-09T18:51:19.010Z,99112.31
2023-05-09T18:53:47.248Z,99124.81
2023-05-09T18:56:14.378Z,99123.97
2023-05-09T18:58:41.356Z,99117.97
2023-05-09T19:01:11.365Z,99124.31
2023-05-09T19:03:45.306Z,99123.47
2023-05-09T19:06:13.413Z,99113.81
2023-05-09T19:08:41.314Z,99113.81
2023-05-09T19:11:08.096Z,99118.28
2023-05-09T19:13:38.212Z,99107.63
2023-05-09T19:16:05.401Z,99110.28
2023-05-09T19:18:31.918Z,99106.81
2023-05-09T19:20:58.923Z,99100.63
2023-05-09T19:23:29.116Z,99097.94
2023-05-09T19:25:55.835Z,99105.78
2023-05-09T19:28:25.894Z,99112.94
2023-05-09T19:30:52.524Z,99110.13
2023-05-09T19:33:20.118Z,99113.81
2023-05-09T19:35:46.828Z,99119.13
2023-05-09T19:38:13.550Z,99120.97
2023-05-09T19:40:41.120Z,99109.63
2023-05-09T19:43:07.663Z,99116.78
2023-05-09T19:45:34.281Z,99123.78
2023-05-09T19:48:02.198Z,99118.63
2023-05-09T19:50:28.852Z,99113.28
2023-05-09T19:52:55.473Z,99111.75
2023-05-09T19:55:22.052Z,99111.75
2023-05-09T19:57:48.793Z,99112.75
2023-05-09T20:00:15.777Z,99116.44
2023-05-09T20:02:42.509Z,99112.91
2023-05-09T20:05:09.295Z,99113.06
2023-05-09T20:07:35.829Z,99105.25
2023-05-09T20:10:02.434Z,99115.06
2023-05-09T20:12:30.212Z,99113.56
2023-05-09T20:14:57.125Z,99109.22
2023-05-09T20:17:23.845Z,99104.06
2023-05-09T20:19:50.797Z,99101.53
2023-05-09T20:22:17.358Z,99099.19
2023-05-09T20:24:43.726Z,99088.84
2023-05-09T20:27:10.388Z,99090.13
2023-05-09T20:29:36.945Z,99085.78
2023-05-09T20:32:03.488Z,99085.13
2023-05-09T20:34:30.006Z,99085.25
2023-05-09T20:36:56.431Z,99078.25
2023-05-09T20:39:23.264Z,99068.59
2023-05-09T20:41:53.976Z,99062.56
2023-05-09T20:44:20.594Z,99053.91
2023-05-09T20:46:47.577Z,99051.41
2023-05-09T20:49:14.637Z,99063.03
2023-05-09T20:51:41.177Z,99057.88
2023-05-09T20:54:07.679Z,99057.03
2023-05-09T20:56:35.640Z,99049.19
2023-05-09T20:59:04.079Z,99056.38
2023-05-09T21:01:32.474Z,99053.72
2023-05-09T21:03:59.277Z,99057.34
2023-05-09T21:06:25.888Z,99057.34
2023-05-09T21:08:52.352Z,99050.34
2023-05-09T21:11:18.866Z,99047.69
2023-05-09T21:13:45.378Z,99047.84
2023-05-09T21:16:11.935Z,99050.66
2023-05-09T21:18:38.559Z,99049.16
2023-05-09T21:21:08.215Z,99057.31
2023-05-09T21:23:35.230Z,99052.16
2023-05-09T21:26:02.501Z,99050.47
2023-05-09T21:28:29.582Z,99041.66
2023-05-09T21:30:56.384Z,99031.13
2023-05-09T21:33:23.219Z,99033.97
2023-05-09T21:35:49.760Z,99025.13
2023-05-09T21:38:16.456Z,99032.28
2023-05-09T21:40:42.989Z,99024.28
2023-05-09T21:43:09.489Z,99024.28
2023-05-09T21:45:35.977Z,99018.13
2023-05-09T21:48:02.609Z,99009.28
2023-05-09T21:50:29.372Z,99005.78
2023-05-09T21:52:56.348Z,98997.28
2023-05-09T21:55:23.097Z,98995.59
2023-05-09T21:57:49.544Z,98994.09
2023-05-09T22:00:17.252Z,98992.56
2023-05-09T22:02:44.151Z,98989.25
2023-05-09T22:05:11.782Z,99002.56
2023-05-09T22:07:39.013Z,98997.25
2023-05-09T22:10:06.241Z,98985.72
2023-05-09T22:12:33.122Z,98990.91
2023-05-09T22:14:59.778Z,98994.38
2023-05-09T22:17:26.442Z,98989.91
2023-05-09T22:19:52.996Z,98987.25
2023-05-09T22:22:19.558Z,98980.91
2023-05-09T22:24:46.200Z,98983.56
2023-05-09T22:27:12.732Z,98980.91
2023-05-09T22:29:39.233Z,98985.44
2023-05-09T22:32:07.732Z,98972.91
2023-05-09T22:34:35.325Z,98980.09
2023-05-09T22:37:01.870Z,98979.25
2023-05-09T22:39:28.422Z,98976.59
2023-05-09T22:41:54.953Z,98980.25
2023-05-09T22:44:21.871Z,98990.91
2023-05-09T22:46:48.666Z,98989.91
2023-05-09T22:49:15.147Z,98986.56
2023-05-09T22:51:42.236Z,98981.25
2023-05-09T22:54:09.119Z,98977.75
2023-05-09T22:56:35.647Z,98983.06
2023-05-09T22:59:02.180Z,98977.03
2023-05-09T23:01:28.823Z,98984.22
2023-05-09T23:03:55.396Z,98984.38
2023-05-09T23:06:21.889Z,98986.53
2023-05-09T23:08:48.375Z,98998.16
2023-05-09T23:11:14.833Z,98981.81
2023-05-09T23:13:41.901Z,98985.78
2023-05-09T23:16:08.332Z,98987.25
2023-05-09T23:18:34.973Z,98985.91
2023-05-09T23:21:01.458Z,98978.38
2023-05-09T23:23:27.973Z,98979.69
2023-05-09T23:25:54.435Z,98978.03
2023-05-09T23:28:24.898Z,98976.50
2023-05-09T23:30:53.963Z,98971.34
2023-05-09T23:33:20.728Z,98967.97
2023-05-09T23:35:48.124Z,98964.50
2023-05-09T23:38:14.638Z,98961.97
2023-05-09T23:40:45.417Z,98963.09
2023-05-09T23:43:12.976Z,98960.44
2023-05-09T23:45:39.557Z,98957.94
2023-05-09T23:48:06.299Z,98960.59
2023-05-09T23:50:32.888Z,98955.25
2023-05-09T23:52:59.448Z,98957.94
2023-05-09T23:55:25.863Z,98955.25
2023-05-09T23:57:52.304Z,98950.09
